Time;durP1;ratioP1;P1;durP2;ratioP2;P2;SDS_P1;SDS_P2;PMS_P1;PMS_P2;Temp;Humidity;BMP_temperature;BMP_pressure;BME280_temperature;BME280_humidity;BME280_pressure;Samples;Min_cycle;Max_cycle;Signal;HPM_P1;HPM_P2
2021/08/24 00:02:22;;;;;;;15.13;6.22;;;;;;;12.62;76.53;99447.59;4750820;30;20048;-63
2021/08/24 00:04:48;;;;;;;12.13;6.53;;;;;;;12.61;76.61;99451.28;4734798;30;20053;-63
2021/08/24 00:07:14;;;;;;;13.90;6.63;;;;;;;12.58;76.56;99444.59;4750220;30;20162;-62
2021/08/24 00:09:40;;;;;;;11.32;6.00;;;;;;;12.57;76.72;99453.63;4750242;30;20438;-63
2021/08/24 00:12:06;;;;;;;18.27;7.68;;;;;;;12.48;76.72;99447.16;4750560;30;20305;-62
2021/08/24 00:14:32;;;;;;;15.00;7.03;;;;;;;12.50;76.74;99461.00;4750472;30;20107;-64
2021/08/24 00:16:59;;;;;;;12.05;6.72;;;;;;;12.50;76.61;99461.81;4750511;30;20060;-63
2021/08/24 00:19:25;;;;;;;10.73;6.57;;;;;;;12.54;77.07;99461.31;4750470;30;20052;-64
2021/08/24 00:21:50;;;;;;;8.50;6.80;;;;;;;12.56;76.70;99462.69;4750351;30;20048;-62
2021/08/24 00:24:17;;;;;;;16.65;7.00;;;;;;;12.64;76.90;99464.06;4750430;30;20193;-63
2021/08/24 00:26:43;;;;;;;12.43;6.25;;;;;;;12.68;76.86;99465.19;4734320;30;20059;-61
2021/08/24 00:29:09;;;;;;;10.73;5.97;;;;;;;12.72;76.90;99464.44;4751676;30;20055;-64
2021/08/24 00:31:34;;;;;;;8.32;5.18;;;;;;;12.76;76.73;99464.75;4753431;30;20507;-63
2021/08/24 00:34:00;;;;;;;8.48;4.65;;;;;;;12.80;76.94;99470.38;4737438;30;20063;-63
2021/08/24 00:36:26;;;;;;;6.07;3.97;;;;;;;12.83;76.80;99464.56;4753518;30;20097;-63
2021/08/24 00:38:52;;;;;;;7.60;3.97;;;;;;;12.85;76.71;99467.75;4753204;30;20048;-63
2021/08/24 00:41:17;;;;;;;13.00;3.97;;;;;;;12.85;76.60;99465.09;4751935;30;20059;-62
2021/08/24 00:43:45;;;;;;;5.75;3.63;;;;;;;12.82;77.11;99463.75;4753090;30;20055;-62
2021/08/24 00:46:33;;;;;;;9.63;4.10;;;;;;;12.80;76.65;99462.41;4753015;30;20102;-62
2021/08/24 00:49:03;;;;;;;5.72;3.70;;;;;;;12.78;77.03;99462.63;4737453;30;20107;-62
2021/08/24 00:51:30;;;;;;;4.97;3.63;;;;;;;12.82;77.35;99462.94;4753094;30;20439;-62
2021/08/24 00:53:56;;;;;;;5.30;3.55;;;;;;;12.81;76.97;99464.00;4752971;30;20431;-62
2021/08/24 00:56:22;;;;;;;4.93;3.95;;;;;;;12.77;76.81;99455.72;4753237;30;20178;-62
2021/08/24 00:58:48;;;;;;;5.20;3.80;;;;;;;12.71;77.18;99456.72;4752897;30;20067;-62
2021/08/24 01:01:15;;;;;;;5.28;3.22;;;;;;;12.67;77.28;99453.72;4751812;30;20110;-62
2021/08/24 01:03:43;;;;;;;5.65;3.80;;;;;;;12.70;77.55;99449.78;4752858;30;20102;-63
2021/08/24 01:06:18;;;;;;;5.88;3.50;;;;;;;12.70;77.45;99455.09;4722276;30;20058;-62
2021/08/24 01:08:56;;;;;;;5.18;3.08;;;;;;;12.66;77.97;99451.34;4752910;30;20155;-61
2021/08/24 01:11:29;;;;;;;5.03;3.38;;;;;;;12.65;77.93;99460.38;4737306;30;20059;-62
2021/08/24 01:14:05;;;;;;;5.35;4.28;;;;;;;12.62;77.93;99458.22;4736901;30;20143;-62
2021/08/24 01:16:30;;;;;;;9.60;5.70;;;;;;;12.57;77.93;99466.13;4736834;30;20052;-62
2021/08/24 01:18:56;;;;;;;7.93;5.80;;;;;;;12.49;78.54;99465.50;4752856;30;20048;-63
2021/08/24 01:21:32;;;;;;;8.45;5.80;;;;;;;12.45;78.34;99467.06;4736902;30;20052;-62
2021/08/24 01:24:01;;;;;;;7.18;5.53;;;;;;;12.43;78.67;99463.03;4752509;30;20091;-62
2021/08/24 01:26:29;;;;;;;7.45;4.90;;;;;;;12.36;79.12;99463.22;4752503;30;20499;-62
2021/08/24 01:29:20;;;;;;;7.55;4.70;;;;;;;12.36;79.08;99465.09;4752302;30;20057;-63
2021/08/24 01:32:01;;;;;;;6.00;5.15;;;;;;;12.33;78.99;99452.28;4752677;30;20063;-63
2021/08/24 01:35:04;;;;;;;6.63;4.53;;;;;;;12.31;79.16;99454.38;4752374;30;20143;-62
2021/08/24 01:38:01;;;;;;;7.45;4.97;;;;;;;12.32;79.17;99459.44;4752638;30;20062;-64
2021/08/24 01:40:39;;;;;;;5.53;4.47;;;;;;;12.31;79.36;99460.50;4736512;30;20105;-61
2021/08/24 01:43:06;;;;;;;7.60;4.28;;;;;;;12.29;79.05;99462.59;4736573;30;20518;-62
2021/08/24 01:45:36;;;;;;;5.32;4.20;;;;;;;12.26;78.82;99460.41;4750955;30;20045;-64
2021/08/24 01:48:15;;;;;;;8.07;4.30;;;;;;;12.23;78.89;99460.91;4721622;30;20097;-62
2021/08/24 01:50:45;;;;;;;6.93;4.45;;;;;;;12.19;78.96;99446.53;4736244;30;20067;-63
2021/08/24 01:53:18;;;;;;;7.55;4.25;;;;;;;12.18;79.15;99451.03;4736406;30;20205;-63
2021/08/24 01:55:47;;;;;;;8.38;4.10;;;;;;;12.16;79.41;99455.00;4736228;30;20056;-63
2021/08/24 01:58:20;;;;;;;7.95;3.75;;;;;;;12.13;79.26;99439.53;4736104;30;20052;-63
2021/08/24 02:00:50;;;;;;;6.47;4.30;;;;;;;12.12;79.20;99443.22;4721425;30;20059;-63
2021/08/24 02:03:20;;;;;;;8.63;3.40;;;;;;;12.10;79.28;99437.38;4735889;30;20060;-62
2021/08/24 02:05:49;;;;;;;6.60;4.15;;;;;;;12.12;79.26;99451.19;4736287;30;20056;-63
2021/08/24 02:08:23;;;;;;;7.75;3.40;;;;;;;12.09;79.07;99438.41;4735926;30;20070;-62
2021/08/24 02:10:51;;;;;;;4.80;3.55;;;;;;;12.09;78.93;99438.41;4750793;30;20064;-63
2021/08/24 02:13:18;;;;;;;8.70;3.72;;;;;;;12.07;79.09;99433.34;4735956;30;20063;-62
2021/08/24 02:15:47;;;;;;;3.75;3.25;;;;;;;12.05;78.95;99433.59;4721157;30;20478;-63
2021/08/24 02:18:17;;;;;;;4.53;3.20;;;;;;;12.05;79.02;99438.91;4735154;30;20048;-63
2021/08/24 02:20:47;;;;;;;9.23;4.00;;;;;;;12.04;79.05;99439.16;4735500;30;20044;-63
2021/08/24 02:23:18;;;;;;;;;;;;;;;12.01;79.22;99440.44;4736151;30;20103;-62
2021/08/24 02:25:47;;;;;;;5.85;3.50;;;;;;;12.04;79.38;99436.50;4750280;30;19930;-62
2021/08/24 02:28:22;;;;;;;5.97;3.60;;;;;;;12.11;78.99;99441.63;4735769;30;20526;-62
2021/08/24 02:30:54;;;;;;;4.60;3.63;;;;;;;12.19;78.61;99438.56;4720981;30;20055;-62
2021/08/24 02:33:20;;;;;;;5.32;3.60;;;;;;;12.30;78.65;99439.50;4735477;30;20130;-64
2021/08/24 02:35:56;;;;;;;5.10;3.63;;;;;;;12.33;78.14;99439.81;4750376;30;20062;-63
2021/08/24 02:38:25;;;;;;;8.05;3.90;;;;;;;12.38;77.89;99445.19;4735489;30;20052;-63
2021/08/24 02:41:11;;;;;;;7.63;3.92;;;;;;;12.54;77.56;99437.38;4735429;30;20056;-63
2021/08/24 02:43:49;;;;;;;5.68;3.67;;;;;;;12.79;76.21;99442.97;4751501;30;20055;-63
2021/08/24 02:46:22;;;;;;;7.20;4.20;;;;;;;13.04;75.04;99444.28;4692603;30;20052;-62
2021/08/24 02:48:52;;;;;;;7.10;3.70;;;;;;;13.21;74.00;99441.47;4751147;30;20218;-63
2021/08/24 02:51:19;;;;;;;5.60;3.40;;;;;;;13.43;73.33;99444.91;4734507;30;20138;-62
2021/08/24 02:53:48;;;;;;;6.35;3.60;;;;;;;13.67;72.89;99449.88;4735209;30;20060;-63
2021/08/24 02:56:14;;;;;;;13.43;3.60;;;;;;;13.91;71.66;99458.28;4734949;30;20079;-62
2021/08/24 02:58:40;;;;;;;6.05;3.38;;;;;;;14.22;70.44;99454.72;4750982;30;20088;-64
2021/08/24 03:01:05;;;;;;;5.85;3.70;;;;;;;14.56;68.74;99456.22;4751020;30;20135;-63
2021/08/24 03:03:31;;;;;;;5.28;3.20;;;;;;;14.79;67.97;99462.97;4749775;30;20102;-64
2021/08/24 03:05:59;;;;;;;7.65;3.10;;;;;;;15.05;66.81;99461.97;4750981;30;20044;-63
2021/08/24 03:08:25;;;;;;;6.82;3.63;;;;;;;15.30;66.45;99468.41;4750899;30;20078;-63
2021/08/24 03:10:53;;;;;;;8.18;3.25;;;;;;;15.48;65.48;99469.75;4750619;30;20611;-64
2021/08/24 03:13:35;;;;;;;5.40;3.20;;;;;;;15.63;64.52;99464.38;4720512;30;20135;-63
2021/08/24 03:16:12;;;;;;;5.03;3.17;;;;;;;15.58;64.52;99467.84;4721533;30;20147;-62
2021/08/24 03:18:43;;;;;;;4.68;2.80;;;;;;;15.35;65.09;99465.72;4735266;30;20071;-63
2021/08/24 03:21:14;;;;;;;5.82;2.92;;;;;;;15.13;65.98;99472.13;4749460;30;20514;-62
2021/08/24 03:23:44;;;;;;;5.40;3.40;;;;;;;14.98;66.54;99472.09;4735699;30;20064;-62
2021/08/24 03:26:10;;;;;;;5.50;3.13;;;;;;;14.83;66.90;99470.19;4734784;30;20137;-64
2021/08/24 03:28:40;;;;;;;5.53;3.55;;;;;;;14.76;67.42;99469.63;4734805;30;20139;-63
2021/08/24 03:31:07;;;;;;;6.95;4.00;;;;;;;14.73;67.97;99472.81;4750172;30;20056;-62
2021/08/24 03:33:33;;;;;;;9.25;4.10;;;;;;;14.72;67.96;99474.69;4734926;30;20415;-62
2021/08/24 03:35:59;;;;;;;5.43;3.55;;;;;;;14.74;68.06;99485.91;4749088;30;20129;-63
2021/08/24 03:38:25;;;;;;;6.93;3.80;;;;;;;14.74;67.71;99477.13;4750405;30;20079;-63
2021/08/24 03:40:51;;;;;;;8.63;3.80;;;;;;;14.72;67.52;99481.91;4750696;30;20110;-64
2021/08/24 03:43:17;;;;;;;5.22;3.03;;;;;;;14.70;68.01;99484.03;4750855;30;20499;-63
2021/08/24 03:45:42;;;;;;;4.50;2.88;;;;;;;14.71;67.69;99480.31;4750394;30;20515;-63
2021/08/24 03:48:08;;;;;;;7.22;2.90;;;;;;;14.72;67.15;99481.91;4750764;30;20062;-62
2021/08/24 03:50:35;;;;;;;5.60;3.08;;;;;;;14.72;67.15;99479.22;4750648;30;20064;-63
2021/08/24 03:53:00;;;;;;;7.05;3.30;;;;;;;14.71;67.72;99480.31;4734260;30;20084;-62
2021/08/24 03:55:26;;;;;;;8.18;3.60;;;;;;;14.90;67.45;99483.28;4750553;30;20102;-62
2021/08/24 03:57:52;;;;;;;8.60;3.22;;;;;;;14.95;67.04;99491.31;4750576;30;20044;-62
2021/08/24 04:00:18;;;;;;;7.32;3.30;;;;;;;15.07;66.75;99491.06;4750245;30;20135;-63
2021/08/24 04:02:44;;;;;;;6.75;3.40;;;;;;;14.97;66.75;99486.50;4751703;30;20079;-64
2021/08/24 04:05:11;;;;;;;4.78;3.72;;;;;;;15.29;65.98;99494.28;4753759;30;20062;-63
2021/08/24 04:07:37;;;;;;;8.45;4.90;;;;;;;15.67;64.39;99489.50;4753721;30;20064;-62
2021/08/24 04:10:04;;;;;;;7.18;4.70;;;;;;;15.63;64.06;99497.25;4753867;30;20091;-63
2021/08/24 04:12:30;;;;;;;5.72;4.38;;;;;;;15.85;63.44;99488.16;4753940;30;20504;-62
2021/08/24 04:14:56;;;;;;;6.97;4.80;;;;;;;15.84;63.61;99489.25;4737590;30;20052;-63
2021/08/24 04:17:22;;;;;;;5.43;4.03;;;;;;;16.07;62.87;99491.34;4753760;30;20051;-62
2021/08/24 04:19:47;;;;;;;5.25;3.85;;;;;;;16.48;61.55;99491.22;4737972;30;20075;-63
2021/08/24 04:22:21;;;;;;;8.90;3.78;;;;;;;16.99;60.35;99501.72;4753243;30;20415;-62
2021/08/24 04:24:47;;;;;;;7.18;4.15;;;;;;;17.39;58.99;99496.38;4737971;30;20051;-62
2021/08/24 04:27:13;;;;;;;5.28;3.50;;;;;;;17.78;57.80;99503.59;4708552;30;20409;-63
2021/08/24 04:29:39;;;;;;;5.25;3.78;;;;;;;18.11;56.87;99497.34;4752109;30;20511;-63
2021/08/24 04:32:06;;;;;;;5.28;4.10;;;;;;;18.36;55.88;99498.97;4737078;30;20052;-64
2021/08/24 04:34:32;;;;;;;5.10;3.35;;;;;;;18.52;55.21;99486.16;4753084;30;20052;-64
2021/08/24 04:36:57;;;;;;;6.47;3.38;;;;;;;18.57;54.66;99491.47;4753130;30;20048;-62
2021/08/24 04:39:23;;;;;;;5.50;3.47;;;;;;;18.53;54.95;99478.91;4752796;30;20048;-63
2021/08/24 04:41:49;;;;;;;4.90;3.00;;;;;;;18.60;54.58;99490.91;4753043;30;20262;-63
2021/08/24 04:44:15;;;;;;;7.25;3.10;;;;;;;18.55;54.50;99488.28;4751747;30;20060;-63
2021/08/24 04:46:41;;;;;;;4.85;3.05;;;;;;;18.59;54.39;99488.53;4752996;30;20131;-63
2021/08/24 04:49:06;;;;;;;6.07;3.30;;;;;;;18.66;54.68;99499.69;4752851;30;20055;-63
2021/08/24 04:51:32;;;;;;;7.45;3.45;;;;;;;18.69;54.50;99501.81;4752463;30;20052;-66
2021/08/24 04:53:58;;;;;;;6.07;3.90;;;;;;;18.61;54.93;99502.44;4752687;30;20086;-63
2021/08/24 04:56:23;;;;;;;6.53;3.25;;;;;;;18.46;54.85;99503.41;4736791;30;20067;-64
2021/08/24 04:58:49;;;;;;;5.50;3.03;;;;;;;18.43;55.47;99506.69;4736908;30;20056;-64
2021/08/24 05:01:16;;;;;;;4.30;3.33;;;;;;;18.41;55.98;99500.00;4737002;30;20055;-63
2021/08/24 05:03:42;;;;;;;7.70;3.25;;;;;;;18.28;56.50;99504.19;4736852;30;20048;-63
2021/08/24 05:06:08;;;;;;;7.55;3.65;;;;;;;18.02;57.13;99490.22;4751414;30;20056;-61
2021/08/24 05:08:33;;;;;;;6.00;3.22;;;;;;;17.84;57.56;99505.94;4752358;30;20412;-64
2021/08/24 05:10:59;;;;;;;4.57;3.30;;;;;;;17.61;58.25;99504.75;4752405;30;20055;-62
2021/08/24 05:13:25;;;;;;;5.93;3.90;;;;;;;17.37;58.66;99498.53;4752696;30;20082;-62
2021/08/24 05:15:50;;;;;;;5.82;3.25;;;;;;;17.15;58.93;99499.75;4735981;30;20511;-62
2021/08/24 05:18:16;;;;;;;4.40;3.00;;;;;;;16.99;59.86;99503.59;4751403;30;20048;-62
2021/08/24 05:20:42;;;;;;;10.73;3.35;;;;;;;16.83;60.48;99492.19;4751005;30;20067;-61
2021/08/24 05:23:09;;;;;;;7.22;3.33;;;;;;;16.87;60.89;99501.25;4736573;30;20059;-62
2021/08/24 05:25:36;;;;;;;19.15;3.85;;;;;;;16.94;61.22;99501.75;4736271;30;20069;-62
2021/08/24 05:28:04;;;;;;;4.78;3.17;;;;;;;16.98;60.80;99492.09;4707360;30;20539;-63
2021/08/24 05:30:30;;;;;;;4.10;3.17;;;;;;;17.00;61.36;99486.44;4736759;30;20052;-65
2021/08/24 05:32:59;;;;;;;9.75;3.78;;;;;;;17.01;60.60;99496.91;4751094;30;20060;-63
2021/08/24 05:35:25;;;;;;;10.27;3.42;;;;;;;17.01;60.19;99491.53;4736804;30;20109;-63
2021/08/24 05:37:51;;;;;;;9.35;3.55;;;;;;;17.04;59.93;99484.84;4752498;30;20044;-62
2021/08/24 05:40:17;;;;;;;7.65;3.80;;;;;;;17.00;60.34;99479.22;4750753;30;20067;-67
2021/08/24 05:42:44;;;;;;;6.63;4.10;;;;;;;17.09;60.26;99484.81;4752235;30;20492;-62
2021/08/24 05:45:12;;;;;;;5.45;3.28;;;;;;;17.11;59.91;99484.50;4750815;30;20059;-64
2021/08/24 05:47:38;;;;;;;7.28;3.40;;;;;;;17.10;60.40;99485.59;4752165;30;20175;-63
2021/08/24 05:50:04;;;;;;;5.78;3.30;;;;;;;17.19;60.63;99489.28;4751944;30;20067;-63
2021/08/24 05:52:30;;;;;;;3.67;2.95;;;;;;;17.25;60.14;99491.66;4736003;30;20268;-63
2021/08/24 05:54:56;;;;;;;5.70;3.00;;;;;;;17.25;60.20;99483.59;4751588;30;20135;-64
2021/08/24 05:57:22;;;;;;;5.07;2.88;;;;;;;17.26;59.20;99484.41;4751581;30;20131;-64
2021/08/24 05:59:49;;;;;;;5.97;2.80;;;;;;;17.39;59.57;99488.34;4751420;30;20508;-65
2021/08/24 06:02:14;;;;;;;8.07;2.90;;;;;;;17.55;58.97;99481.78;4751647;30;20055;-64
2021/08/24 06:04:40;;;;;;;4.40;2.35;;;;;;;17.68;57.57;99477.66;4751614;30;20059;-64
2021/08/24 06:07:06;;;;;;;5.65;2.25;;;;;;;17.80;57.00;99482.69;4751429;30;20168;-65
2021/08/24 06:09:32;;;;;;;5.05;2.45;;;;;;;17.86;56.85;99481.53;4735475;30;20064;-65
2021/08/24 06:11:58;;;;;;;3.65;2.28;;;;;;;17.84;56.79;99478.34;4751434;30;20415;-64
2021/08/24 06:14:23;;;;;;;2.67;2.45;;;;;;;17.81;56.89;99482.38;4735231;30;20048;-64
2021/08/24 06:16:57;;;;;;;6.85;2.20;;;;;;;17.75;57.34;99480.81;4751187;30;20052;-64
2021/08/24 06:19:25;;;;;;;5.25;2.15;;;;;;;17.73;57.39;99479.47;4751439;30;20417;-63
2021/08/24 06:21:51;;;;;;;4.20;2.60;;;;;;;17.75;57.38;99486.16;4751175;30;20094;-62
2021/08/24 06:24:17;;;;;;;6.07;2.13;;;;;;;17.88;57.02;99485.53;4744982;30;20131;-63
2021/08/24 06:26:42;;;;;;;2.78;2.30;;;;;;;17.91;57.76;99482.28;4747559;30;20530;-64
2021/08/24 06:29:09;;;;;;;5.50;2.50;;;;;;;18.01;57.21;99486.75;4748516;30;20531;-63
2021/08/24 06:31:39;;;;;;;5.78;2.42;;;;;;;18.01;56.05;99485.97;4747974;30;20050;-63
2021/08/24 06:34:07;;;;;;;3.47;1.90;;;;;;;18.00;56.60;99489.69;4719081;30;20445;-62
2021/08/24 06:36:33;;;;;;;4.88;2.17;;;;;;;18.07;55.97;99492.88;4748419;30;20137;-63
2021/08/24 06:38:59;;;;;;;4.40;1.90;;;;;;;18.07;55.79;99492.88;4748489;30;20058;-62
2021/08/24 06:41:25;;;;;;;5.88;2.15;;;;;;;18.10;56.90;99489.63;4749777;30;20109;-63
2021/08/24 06:43:51;;;;;;;3.05;1.50;;;;;;;18.13;56.24;99486.34;4748414;30;20044;-62
2021/08/24 06:46:17;;;;;;;6.60;1.95;;;;;;;18.19;55.45;99492.47;4747328;30;20059;-61
2021/08/24 06:48:43;;;;;;;4.35;1.85;;;;;;;18.22;55.75;99494.59;4747267;30;20060;-61
2021/08/24 06:51:09;;;;;;;3.53;2.10;;;;;;;18.29;55.76;99495.03;4745711;30;20202;-62
2021/08/24 06:53:37;;;;;;;5.03;2.20;;;;;;;18.33;55.08;99501.44;4748757;30;20059;-62
2021/08/24 06:56:03;;;;;;;3.65;2.08;;;;;;;18.36;54.88;99498.97;4747215;30;20538;-65
2021/08/24 06:58:29;;;;;;;2.60;1.75;;;;;;;18.44;53.74;99496.72;4732577;30;20448;-64
2021/08/24 07:00:55;;;;;;;5.57;1.90;;;;;;;18.50;54.05;99492.91;4718685;30;20048;-64
2021/08/24 07:03:21;;;;;;;4.38;2.28;;;;;;;18.55;54.33;99493.66;4732770;30;20494;-63
2021/08/24 07:05:49;;;;;;;3.03;1.85;;;;;;;18.62;52.94;99493.31;4746468;30;20538;-63
2021/08/24 07:08:15;;;;;;;2.50;1.90;;;;;;;18.60;52.74;99495.47;4746476;30;20114;-64
2021/08/24 07:10:41;;;;;;;7.10;2.78;;;;;;;18.58;53.03;99490.38;4746337;30;20094;-66
2021/08/24 07:13:08;;;;;;;5.05;2.20;;;;;;;18.54;52.70;99492.06;4746722;30;20044;-64
2021/08/24 07:15:35;;;;;;;2.65;1.90;;;;;;;18.45;52.82;99482.25;4748017;30;20466;-65
2021/08/24 07:18:02;;;;;;;6.03;2.20;;;;;;;18.40;52.70;99488.47;4747083;30;20055;-62
2021/08/24 07:20:28;;;;;;;3.33;1.67;;;;;;;18.55;51.41;99485.59;4745662;30;20048;-64
2021/08/24 07:22:57;;;;;;;4.55;1.95;;;;;;;18.81;51.24;99491.47;4729718;30;20052;-63
2021/08/24 07:25:25;;;;;;;2.83;2.05;;;;;;;19.04;51.20;99475.59;4730668;30;20584;-62
2021/08/24 07:27:52;;;;;;;2.70;1.90;;;;;;;19.17;50.93;99471.34;4729798;30;20056;-62
2021/08/24 07:30:18;;;;;;;3.85;1.95;;;;;;;19.19;50.73;99488.00;4746698;30;20056;-63
2021/08/24 07:32:43;;;;;;;5.25;2.00;;;;;;;19.20;50.85;99481.53;4747885;30;20044;-60
2021/08/24 07:35:09;;;;;;;5.80;2.22;;;;;;;19.28;50.41;99484.34;4743419;30;20059;-61
2021/08/24 07:37:35;;;;;;;3.72;1.95;;;;;;;19.61;49.89;99486.25;4733550;30;20052;-60
2021/08/24 07:40:01;;;;;;;4.10;1.77;;;;;;;19.79;48.34;99481.94;4736173;30;20059;-62
2021/08/24 07:42:27;;;;;;;4.88;2.10;;;;;;;19.97;48.83;99486.44;4735205;30;20088;-62
2021/08/24 07:44:53;;;;;;;2.63;1.88;;;;;;;20.10;46.21;99485.69;4735737;30;20500;-63
2021/08/24 07:47:18;;;;;;;3.70;2.20;;;;;;;20.14;46.54;99481.28;4750814;30;20055;-62
2021/08/24 07:49:46;;;;;;;3.85;1.90;;;;;;;20.24;46.52;99487.59;4730876;30;20455;-62
2021/08/24 07:52:13;;;;;;;3.28;1.83;;;;;;;20.31;46.08;99479.91;4750548;30;20087;-61
2021/08/24 07:54:39;;;;;;;3.50;1.75;;;;;;;20.47;45.24;99481.22;4736171;30;20052;-62
2021/08/24 07:57:05;;;;;;;4.20;1.92;;;;;;;20.59;44.96;99486.91;4750413;30;20477;-62
2021/08/24 07:59:32;;;;;;;3.30;2.03;;;;;;;20.69;45.02;99487.78;4734964;30;20060;-62
2021/08/24 08:01:58;;;;;;;3.65;1.95;;;;;;;20.79;44.64;99487.56;4751555;30;20507;-60
2021/08/24 08:04:26;;;;;;;6.57;1.95;;;;;;;20.72;44.57;99487.97;4733151;30;20051;-61
2021/08/24 08:06:52;;;;;;;3.83;2.30;;;;;;;20.46;47.08;99503.03;4749666;30;20134;-60
2021/08/24 08:09:20;;;;;;;5.95;2.47;;;;;;;20.21;50.40;99499.75;4751343;30;20428;-62
2021/08/24 08:11:50;;;;;;;5.47;2.67;;;;;;;19.50;53.50;99504.44;4752201;30;20045;-61
2021/08/24 08:14:16;;;;;;;6.10;2.20;;;;;;;19.19;54.84;99507.59;4735839;30;20129;-61
2021/08/24 08:16:43;;;;;;;3.35;2.85;;;;;;;18.95;55.43;99502.31;4751697;30;20048;-61
2021/08/24 08:19:08;;;;;;;3.65;2.42;;;;;;;18.78;55.66;99508.16;4749120;30;20059;-61
2021/08/24 08:21:38;;;;;;;8.35;3.22;;;;;;;18.65;56.03;99516.91;4734018;30;20059;-62
2021/08/24 08:24:04;;;;;;;9.02;2.95;;;;;;;18.52;56.50;99513.00;4748090;30;20513;-62
2021/08/24 08:26:32;;;;;;;7.07;3.20;;;;;;;18.44;56.30;99510.16;4751704;30;20044;-62
2021/08/24 08:29:02;;;;;;;6.10;3.28;;;;;;;18.52;56.67;99514.91;4741515;30;20052;-62
2021/08/24 08:31:29;;;;;;;5.05;3.00;;;;;;;18.67;55.70;99505.84;4749845;30;20087;-64
2021/08/24 08:33:55;;;;;;;5.72;2.58;;;;;;;18.84;56.12;99498.16;4749917;30;20048;-62
2021/08/24 08:36:22;;;;;;;5.43;2.03;;;;;;;18.89;54.32;99505.34;4727518;30;20562;-61
2021/08/24 08:38:47;;;;;;;3.05;1.90;;;;;;;18.89;53.92;99502.66;4749181;30;20048;-61
2021/08/24 08:41:19;;;;;;;3.22;1.90;;;;;;;18.88;54.27;99501.84;4747615;30;20059;-61
2021/08/24 08:43:54;;;;;;;6.97;1.98;;;;;;;18.78;53.92;99502.00;4747663;30;20233;-61
2021/08/24 08:46:52;;;;;;;3.80;1.85;;;;;;;18.72;54.35;99493.16;4746233;30;20135;-60
2021/08/24 08:49:37;;;;;;;2.35;1.80;;;;;;;18.81;53.52;99482.63;4746189;30;20308;-61
2021/08/24 08:52:25;;;;;;;2.10;1.60;;;;;;;18.83;53.35;99493.88;4732910;30;20044;-60
2021/08/24 08:54:54;;;;;;;2.72;1.70;;;;;;;18.89;52.97;99486.56;4732255;30;20059;-62
2021/08/24 08:57:25;;;;;;;4.35;1.88;;;;;;;19.22;52.04;99482.81;4750169;30;20511;-61
2021/08/24 09:00:19;;;;;;;3.83;1.98;;;;;;;19.56;51.06;99481.78;4749597;30;20412;-61
2021/08/24 09:02:49;;;;;;;5.28;1.90;;;;;;;19.74;50.14;99478.25;4698236;30;20143;-62
2021/08/24 09:05:19;;;;;;;6.55;1.95;;;;;;;19.85;49.77;99481.53;4750128;30;20063;-61
2021/08/24 09:07:46;;;;;;;4.43;2.22;;;;;;;19.69;49.79;99486.41;4748531;30;20116;-62
2021/08/24 09:10:17;;;;;;;6.57;2.05;;;;;;;19.71;49.66;99481.53;4734761;30;20056;-61
2021/08/24 09:12:47;;;;;;;4.65;2.08;;;;;;;19.73;49.34;99490.09;4750505;30;20104;-62
2021/08/24 09:15:17;;;;;;;3.33;1.98;;;;;;;19.61;48.77;99491.63;4734493;30;20052;-62
2021/08/24 09:17:43;;;;;;;5.35;2.75;;;;;;;19.52;49.25;99486.91;4734882;30;20079;-62
2021/08/24 09:20:16;;;;;;;4.65;2.85;;;;;;;19.46;49.51;99474.66;4748465;30;20094;-62
2021/08/24 09:22:43;;;;;;;4.40;2.22;;;;;;;19.59;49.13;99486.56;4750882;30;20137;-61
2021/08/24 09:25:24;;;;;;;5.13;2.35;;;;;;;19.73;49.01;99486.59;4735108;30;20068;-62
2021/08/24 09:28:16;;;;;;;4.95;2.35;;;;;;;19.79;48.30;99481.94;4719492;30;20048;-62
2021/08/24 09:30:43;;;;;;;4.68;2.28;;;;;;;19.78;48.26;99485.72;4734416;30;20052;-63
2021/08/24 09:33:10;;;;;;;2.33;1.80;;;;;;;19.86;47.64;99482.38;4720356;30;20058;-62
2021/08/24 09:35:38;;;;;;;7.55;2.30;;;;;;;19.96;47.33;99482.97;4734563;30;20146;-62
2021/08/24 09:38:28;;;;;;;6.05;2.40;;;;;;;20.17;51.51;99479.88;4752344;30;20051;-61
2021/08/24 09:40:54;;;;;;;3.90;2.03;;;;;;;20.29;49.88;99485.56;4751665;30;20062;-63
2021/08/24 09:43:29;;;;;;;3.85;2.00;;;;;;;20.21;47.65;99483.59;4750374;30;20052;-60
2021/08/24 09:45:55;;;;;;;2.70;1.80;;;;;;;20.09;45.20;99481.41;4750931;30;20056;-67
2021/08/24 09:48:21;;;;;;;3.10;2.10;;;;;;;20.06;46.04;99473.09;4749116;30;20142;-62
2021/08/24 09:50:47;;;;;;;2.35;1.77;;;;;;;20.13;45.77;99470.84;4719610;30;20143;-61
2021/08/24 09:53:33;;;;;;;2.92;1.90;;;;;;;20.20;45.22;99466.63;4720001;30;20151;-61
2021/08/24 09:56:02;;;;;;;3.50;2.38;;;;;;;20.39;44.70;99466.53;4735118;30;20515;-62
2021/08/24 09:58:37;;;;;;;3.03;2.10;;;;;;;20.52;44.35;99464.13;4734104;30;20048;-61
2021/08/24 10:01:06;;;;;;;5.93;1.73;;;;;;;20.62;43.88;99464.75;4750575;30;20058;-62
2021/08/24 10:03:40;;;;;;;4.88;2.47;;;;;;;20.69;43.79;99474.31;4750638;30;20060;-61
2021/08/24 10:06:24;;;;;;;4.20;1.88;;;;;;;20.69;43.54;99477.81;4749880;30;20054;-61
2021/08/24 10:08:55;;;;;;;5.53;2.40;;;;;;;20.86;43.75;99474.47;4749990;30;20137;-61
2021/08/24 10:11:32;;;;;;;3.47;2.10;;;;;;;20.86;43.88;99471.78;4720527;30;20495;-62
2021/08/24 10:14:20;;;;;;;3.47;1.88;;;;;;;20.80;43.37;99473.00;4749947;30;20127;-61
2021/08/24 10:16:52;;;;;;;5.97;2.20;;;;;;;20.67;44.05;99471.91;4750573;30;20511;-62
2021/08/24 10:19:25;;;;;;;6.30;2.20;;;;;;;20.66;43.68;99466.84;4750489;30;20056;-61
2021/08/24 10:21:51;;;;;;;4.18;2.28;;;;;;;20.74;43.39;99469.63;4732465;30;20148;-64
2021/08/24 10:24:25;;;;;;;5.05;2.40;;;;;;;20.79;42.82;99461.41;4728881;30;20076;-62
2021/08/24 10:26:56;;;;;;;3.97;1.95;;;;;;;20.98;41.72;99468.56;4730905;30;20663;-62
2021/08/24 10:29:31;;;;;;;7.72;2.42;;;;;;;21.10;41.07;99464.22;4717248;30;20106;-62
2021/08/24 10:32:03;;;;;;;4.82;2.20;;;;;;;21.04;40.42;99464.66;4747646;30;20052;-61
2021/08/24 10:34:43;;;;;;;3.40;2.28;;;;;;;20.87;39.43;99459.91;4731217;30;20056;-62
2021/08/24 10:37:28;;;;;;;4.80;2.30;;;;;;;20.61;40.22;99465.84;4733490;30;20077;-62
2021/08/24 10:40:24;;;;;;;3.55;2.47;;;;;;;20.39;40.77;99471.94;4732918;30;20404;-62
2021/08/24 10:43:17;;;;;;;3.88;2.20;;;;;;;20.42;41.15;99467.84;4732409;30;20480;-61
2021/08/24 10:45:46;;;;;;;5.40;2.25;;;;;;;20.54;40.33;99464.66;4726880;30;20056;-61
2021/08/24 10:48:18;;;;;;;5.53;2.10;;;;;;;20.83;39.96;99465.09;4717005;30;20545;-61
2021/08/24 10:50:49;;;;;;;6.68;2.22;;;;;;;21.01;39.69;99466.03;4730704;30;20063;-60
2021/08/24 10:53:39;;;;;;;5.25;2.13;;;;;;;21.09;41.67;99462.63;4746469;30;20444;-62
2021/08/24 10:56:14;;;;;;;;;;;;;;;20.91;45.37;99474.34;4746409;30;20063;-60
2021/08/24 10:58:52;;;;;;;4.00;2.22;;;;;;;20.55;47.09;99467.03;4748190;30;19937;-62
2021/08/24 11:01:28;;;;;;;3.13;2.05;;;;;;;20.48;46.33;99463.16;4730861;30;20337;-61
2021/08/24 11:04:13;;;;;;;3.92;2.60;;;;;;;20.44;47.18;99462.94;4745024;30;20138;-62
2021/08/24 11:06:58;;;;;;;2.88;2.22;;;;;;;20.47;47.25;99461.53;4746747;30;20052;-62
2021/08/24 11:09:48;;;;;;;3.58;2.00;;;;;;;20.62;47.12;99469.34;4733164;30;20138;-62
2021/08/24 11:12:31;;;;;;;3.40;2.20;;;;;;;20.52;46.87;99462.25;4746903;30;20407;-62
2021/08/24 11:15:15;;;;;;;4.40;2.00;;;;;;;20.42;47.05;99459.75;4731518;30;20306;-60
2021/08/24 11:18:05;;;;;;;3.35;2.17;;;;;;;20.27;47.46;99462.78;4746426;30;20044;-65
2021/08/24 11:20:43;;;;;;;4.13;2.38;;;;;;;20.16;47.76;99464.84;4729208;30;20143;-61
2021/08/24 11:23:47;;;;;;;3.03;1.90;;;;;;;20.00;47.85;99467.03;4715147;30;20508;-60
2021/08/24 11:26:20;;;;;;;3.10;2.00;;;;;;;19.86;48.71;99464.31;4743413;30;20490;-62
2021/08/24 11:29:19;;;;;;;4.97;2.38;;;;;;;20.04;48.12;99456.47;4746248;30;20101;-61
2021/08/24 11:31:48;;;;;;;2.88;1.95;;;;;;;20.22;47.59;99458.28;4746546;30;20102;-62
2021/08/24 11:34:44;;;;;;;3.00;2.05;;;;;;;20.30;47.19;99454.88;4742690;30;20068;-62
2021/08/24 11:37:21;;;;;;;2.50;1.85;;;;;;;20.53;46.45;99450.41;4730240;30;20056;-62
2021/08/24 11:39:57;;;;;;;4.97;2.08;;;;;;;20.95;45.32;99455.69;4746993;30;20078;-61
2021/08/24 11:42:38;;;;;;;4.93;2.20;;;;;;;21.08;44.48;99457.53;4729261;30;20079;-63
2021/08/24 11:45:06;;;;;;;3.70;2.28;;;;;;;21.13;41.82;99459.31;4730053;30;20055;-63
2021/08/24 11:47:43;;;;;;;3.45;2.10;;;;;;;21.19;42.09;99456.19;4746575;30;20049;-62
2021/08/24 11:50:13;;;;;;;6.25;2.45;;;;;;;21.24;41.67;99439.91;4744980;30;20520;-60